sensor_id;sensor_type;location;lat;lon;timestamp;temperature;humidity
52451;DHT22;38366;53.176;6.540;2023-04-25T00:00:20;7.20;99.90
52451;DHT22;38366;53.176;6.540;2023-04-25T00:02:46;7.20;99.90
52451;DHT22;38366;53.176;6.540;2023-04-25T00:05:12;7.10;99.90
52451;DHT22;38366;53.176;6.540;2023-04-25T00:07:40;7.20;99.90
52451;DHT22;38366;53.176;6.540;2023-04-25T00:10:08;7.20;99.90
52451;DHT22;38366;53.176;6.540;2023-04-25T00:12:34;7.10;99.90
52451;DHT22;38366;53.176;6.540;2023-04-25T00:15:01;7.10;99.90
52451;DHT22;38366;53.176;6.540;2023-04-25T00:17:27;7.10;99.90
52451;DHT22;38366;53.176;6.540;2023-04-25T00:19:53;7.10;99.90
52451;DHT22;38366;53.176;6.540;2023-04-25T00:22:19;7.10;99.90
52451;DHT22;38366;53.176;6.540;2023-04-25T00:24:44;7.10;99.90
52451;DHT22;38366;53.176;6.540;2023-04-25T00:27:10;7.10;99.90
52451;DHT22;38366;53.176;6.540;2023-04-25T00:29:36;7.10;99.90
52451;DHT22;38366;53.176;6.540;2023-04-25T00:32:01;7.10;99.90
52451;DHT22;38366;53.176;6.540;2023-04-25T00:34:27;7.10;99.90
52451;DHT22;38366;53.176;6.540;2023-04-25T00:36:53;7.10;99.90
52451;DHT22;38366;53.176;6.540;2023-04-25T00:39:18;7.00;99.90
52451;DHT22;38366;53.176;6.540;2023-04-25T00:41:45;7.00;99.90
52451;DHT22;38366;53.176;6.540;2023-04-25T00:44:11;6.90;99.90
52451;DHT22;38366;53.176;6.540;2023-04-25T00:46:38;6.90;99.90
52451;DHT22;38366;53.176;6.540;2023-04-25T00:49:04;6.90;99.90
52451;DHT22;38366;53.176;6.540;2023-04-25T00:51:30;6.90;99.90
52451;DHT22;38366;53.176;6.540;2023-04-25T00:53:57;6.90;99.90
52451;DHT22;38366;53.176;6.540;2023-04-25T00:56:23;6.90;99.90
52451;DHT22;38366;53.176;6.540;2023-04-25T00:58:50;6.90;99.90
52451;DHT22;38366;53.176;6.540;2023-04-25T01:01:18;6.90;99.90
52451;DHT22;38366;53.176;6.540;2023-04-25T01:03:45;6.90;99.90
52451;DHT22;38366;53.176;6.540;2023-04-25T01:06:12;6.80;99.90
52451;DHT22;38366;53.176;6.540;2023-04-25T01:08:38;6.80;99.90
52451;DHT22;38366;53.176;6.540;2023-04-25T01:11:05;6.80;99.90
52451;DHT22;38366;53.176;6.540;2023-04-25T01:13:32;6.80;99.90
52451;DHT22;38366;53.176;6.540;2023-04-25T01:15:59;6.80;99.90
52451;DHT22;38366;53.176;6.540;2023-04-25T01:18:25;6.80;99.90
52451;DHT22;38366;53.176;6.540;2023-04-25T01:20:51;6.80;99.90
52451;DHT22;38366;53.176;6.540;2023-04-25T01:23:18;6.80;99.90
52451;DHT22;38366;53.176;6.540;2023-04-25T01:25:44;6.70;99.90
52451;DHT22;38366;53.176;6.540;2023-04-25T01:28:10;6.80;99.90
52451;DHT22;38366;53.176;6.540;2023-04-25T01:30:37;6.80;99.90
52451;DHT22;38366;53.176;6.540;2023-04-25T01:33:04;6.70;99.90
52451;DHT22;38366;53.176;6.540;2023-04-25T01:35:31;6.70;99.90
52451;DHT22;38366;53.176;6.540;2023-04-25T01:37:57;6.70;99.90
52451;DHT22;38366;53.176;6.540;2023-04-25T01:40:24;6.70;99.90
52451;DHT22;38366;53.176;6.540;2023-04-25T01:42:50;6.70;99.90
52451;DHT22;38366;53.176;6.540;2023-04-25T01:45:16;6.70;99.90
52451;DHT22;38366;53.176;6.540;2023-04-25T01:47:42;6.70;99.90
52451;DHT22;38366;53.176;6.540;2023-04-25T01:50:10;6.70;99.90
52451;DHT22;38366;53.176;6.540;2023-04-25T01:52:36;6.70;99.90
52451;DHT22;38366;53.176;6.540;2023-04-25T01:55:02;6.70;99.90
52451;DHT22;38366;53.176;6.540;2023-04-25T01:57:28;6.70;99.90
52451;DHT22;38366;53.176;6.540;2023-04-25T02:00:02;6.70;99.90
52451;DHT22;38366;53.176;6.540;2023-04-25T02:02:28;6.70;99.90
52451;DHT22;38366;53.176;6.540;2023-04-25T02:04:54;6.70;99.90
52451;DHT22;38366;53.176;6.540;2023-04-25T02:07:20;6.70;99.90
52451;DHT22;38366;53.176;6.540;2023-04-25T02:09:46;6.60;99.90
52451;DHT22;38366;53.176;6.540;2023-04-25T02:12:12;6.60;99.90
52451;DHT22;38366;53.176;6.540;2023-04-25T02:14:37;7.00;99.90
52451;DHT22;38366;53.176;6.540;2023-04-25T02:17:03;6.60;99.90
52451;DHT22;38366;53.176;6.540;2023-04-25T02:19:29;6.60;99.90
52451;DHT22;38366;53.176;6.540;2023-04-25T02:21:55;6.60;99.90
52451;DHT22;38366;53.176;6.540;2023-04-25T02:24:22;6.60;99.90
52451;DHT22;38366;53.176;6.540;2023-04-25T02:26:48;6.60;99.90
52451;DHT22;38366;53.176;6.540;2023-04-25T02:29:15;6.60;99.90
52451;DHT22;38366;53.176;6.540;2023-04-25T02:31:41;6.50;99.90
52451;DHT22;38366;53.176;6.540;2023-04-25T02:34:07;6.50;99.90
52451;DHT22;38366;53.176;6.540;2023-04-25T02:36:32;6.50;99.90
52451;DHT22;38366;53.176;6.540;2023-04-25T02:39:00;6.50;99.90
52451;DHT22;38366;53.176;6.540;2023-04-25T02:41:26;6.50;99.90
52451;DHT22;38366;53.176;6.540;2023-04-25T02:43:52;6.50;99.90
52451;DHT22;38366;53.176;6.540;2023-04-25T02:46:18;6.40;99.90
52451;DHT22;38366;53.176;6.540;2023-04-25T02:48:43;6.40;99.90
52451;DHT22;38366;53.176;6.540;2023-04-25T02:51:09;6.40;99.90
52451;DHT22;38366;53.176;6.540;2023-04-25T02:53:35;6.40;99.90
52451;DHT22;38366;53.176;6.540;2023-04-25T02:56:01;6.40;99.90
52451;DHT22;38366;53.176;6.540;2023-04-25T02:58:27;6.40;99.90
52451;DHT22;38366;53.176;6.540;2023-04-25T03:00:53;6.30;99.90
52451;DHT22;38366;53.176;6.540;2023-04-25T03:03:19;6.30;99.90
52451;DHT22;38366;53.176;6.540;2023-04-25T03:05:50;6.40;99.90
52451;DHT22;38366;53.176;6.540;2023-04-25T03:08:17;6.30;99.90
52451;DHT22;38366;53.176;6.540;2023-04-25T03:10:44;6.30;99.90
52451;DHT22;38366;53.176;6.540;2023-04-25T03:13:09;6.30;99.90
52451;DHT22;38366;53.176;6.540;2023-04-25T03:15:36;6.40;99.90
52451;DHT22;38366;53.176;6.540;2023-04-25T03:18:02;6.30;99.90
52451;DHT22;38366;53.176;6.540;2023-04-25T03:20:28;6.30;99.90
52451;DHT22;38366;53.176;6.540;2023-04-25T03:22:53;6.30;99.90
52451;DHT22;38366;53.176;6.540;2023-04-25T03:25:19;6.30;99.90
52451;DHT22;38366;53.176;6.540;2023-04-25T03:27:45;6.20;99.90
52451;DHT22;38366;53.176;6.540;2023-04-25T03:30:11;6.20;99.90
52451;DHT22;38366;53.176;6.540;2023-04-25T03:32:37;6.10;99.90
52451;DHT22;38366;53.176;6.540;2023-04-25T03:35:03;6.00;99.90
52451;DHT22;38366;53.176;6.540;2023-04-25T03:37:29;6.00;99.90
52451;DHT22;38366;53.176;6.540;2023-04-25T03:39:55;7.30;99.90
52451;DHT22;38366;53.176;6.540;2023-04-25T03:42:20;5.80;99.90
52451;DHT22;38366;53.176;6.540;2023-04-25T03:44:48;5.80;99.90
52451;DHT22;38366;53.176;6.540;2023-04-25T03:47:14;5.80;99.90
52451;DHT22;38366;53.176;6.540;2023-04-25T03:49:41;5.70;99.90
52451;DHT22;38366;53.176;6.540;2023-04-25T03:52:07;5.70;99.90
52451;DHT22;38366;53.176;6.540;2023-04-25T03:54:32;5.60;99.90
52451;DHT22;38366;53.176;6.540;2023-04-25T03:56:58;5.60;99.90
52451;DHT22;38366;53.176;6.540;2023-04-25T03:59:24;5.60;99.90
52451;DHT22;38366;53.176;6.540;2023-04-25T04:01:51;5.50;99.90
52451;DHT22;38366;53.176;6.540;2023-04-25T04:04:18;5.60;99.90
52451;DHT22;38366;53.176;6.540;2023-04-25T04:06:43;5.40;99.90
52451;DHT22;38366;53.176;6.540;2023-04-25T04:09:09;5.30;99.90
52451;DHT22;38366;53.176;6.540;2023-04-25T04:11:37;5.20;99.90
52451;DHT22;38366;53.176;6.540;2023-04-25T04:14:05;5.30;99.90
52451;DHT22;38366;53.176;6.540;2023-04-25T04:16:31;5.20;99.90
52451;DHT22;38366;53.176;6.540;2023-04-25T04:18:57;5.30;99.90
52451;DHT22;38366;53.176;6.540;2023-04-25T04:21:23;5.20;99.90
52451;DHT22;38366;53.176;6.540;2023-04-25T04:23:48;5.00;99.90
52451;DHT22;38366;53.176;6.540;2023-04-25T04:26:15;5.20;99.90
52451;DHT22;38366;53.176;6.540;2023-04-25T04:28:42;5.00;99.90
52451;DHT22;38366;53.176;6.540;2023-04-25T04:31:10;5.10;99.90
52451;DHT22;38366;53.176;6.540;2023-04-25T04:33:35;4.90;99.90
52451;DHT22;38366;53.176;6.540;2023-04-25T04:36:02;4.90;99.90
52451;DHT22;38366;53.176;6.540;2023-04-25T04:38:29;4.90;99.90
52451;DHT22;38366;53.176;6.540;2023-04-25T04:40:54;4.80;99.90
52451;DHT22;38366;53.176;6.540;2023-04-25T04:43:21;4.80;99.90
52451;DHT22;38366;53.176;6.540;2023-04-25T04:45:48;4.80;99.90
52451;DHT22;38366;53.176;6.540;2023-04-25T04:48:15;4.80;99.90
52451;DHT22;38366;53.176;6.540;2023-04-25T04:50:43;4.80;99.90
52451;DHT22;38366;53.176;6.540;2023-04-25T04:53:11;4.80;99.90
52451;DHT22;38366;53.176;6.540;2023-04-25T04:55:37;5.00;99.90
52451;DHT22;38366;53.176;6.540;2023-04-25T04:58:03;4.80;99.90
52451;DHT22;38366;53.176;6.540;2023-04-25T05:00:28;4.90;99.90
52451;DHT22;38366;53.176;6.540;2023-04-25T05:02:57;4.90;99.90
52451;DHT22;38366;53.176;6.540;2023-04-25T05:05:23;5.00;99.90
52451;DHT22;38366;53.176;6.540;2023-04-25T05:07:49;5.20;99.90
52451;DHT22;38366;53.176;6.540;2023-04-25T05:10:14;5.10;99.90
52451;DHT22;38366;53.176;6.540;2023-04-25T05:12:40;5.20;99.90
52451;DHT22;38366;53.176;6.540;2023-04-25T05:15:06;5.20;99.90
52451;DHT22;38366;53.176;6.540;2023-04-25T05:17:32;5.20;99.90
52451;DHT22;38366;53.176;6.540;2023-04-25T05:19:58;5.20;99.90
52451;DHT22;38366;53.176;6.540;2023-04-25T05:22:24;5.20;99.90
52451;DHT22;38366;53.176;6.540;2023-04-25T05:24:49;5.60;99.90
52451;DHT22;38366;53.176;6.540;2023-04-25T05:27:17;5.10;99.90
52451;DHT22;38366;53.176;6.540;2023-04-25T05:29:43;5.10;99.90
52451;DHT22;38366;53.176;6.540;2023-04-25T05:32:09;5.50;99.90
52451;DHT22;38366;53.176;6.540;2023-04-25T05:34:38;5.10;99.90
52451;DHT22;38366;53.176;6.540;2023-04-25T05:37:04;5.20;99.90
52451;DHT22;38366;53.176;6.540;2023-04-25T05:39:29;5.10;99.90
52451;DHT22;38366;53.176;6.540;2023-04-25T05:41:55;5.20;99.90
52451;DHT22;38366;53.176;6.540;2023-04-25T05:44:21;5.30;99.90
52451;DHT22;38366;53.176;6.540;2023-04-25T05:46:46;5.50;99.90
52451;DHT22;38366;53.176;6.540;2023-04-25T05:49:13;5.60;99.90
52451;DHT22;38366;53.176;6.540;2023-04-25T05:51:38;5.70;99.90
52451;DHT22;38366;53.176;6.540;2023-04-25T05:54:04;5.90;99.90
52451;DHT22;38366;53.176;6.540;2023-04-25T05:56:30;6.00;99.90
52451;DHT22;38366;53.176;6.540;2023-04-25T05:58:55;6.10;99.90
52451;DHT22;38366;53.176;6.540;2023-04-25T06:01:22;6.20;99.90
52451;DHT22;38366;53.176;6.540;2023-04-25T06:03:48;6.20;99.90
52451;DHT22;38366;53.176;6.540;2023-04-25T06:06:14;6.20;99.90
52451;DHT22;38366;53.176;6.540;2023-04-25T06:08:40;6.20;99.90
52451;DHT22;38366;53.176;6.540;2023-04-25T06:11:06;6.20;99.90
52451;DHT22;38366;53.176;6.540;2023-04-25T06:13:32;6.20;99.90
52451;DHT22;38366;53.176;6.540;2023-04-25T06:15:58;6.20;99.90
52451;DHT22;38366;53.176;6.540;2023-04-25T06:18:24;6.30;99.90
52451;DHT22;38366;53.176;6.540;2023-04-25T06:20:49;6.40;99.90
52451;DHT22;38366;53.176;6.540;2023-04-25T06:23:15;6.50;99.90
52451;DHT22;38366;53.176;6.540;2023-04-25T06:25:41;6.50;99.90
52451;DHT22;38366;53.176;6.540;2023-04-25T06:28:06;6.80;99.90
52451;DHT22;38366;53.176;6.540;2023-04-25T06:30:32;7.40;99.90
52451;DHT22;38366;53.176;6.540;2023-04-25T06:32:58;8.10;99.90
52451;DHT22;38366;53.176;6.540;2023-04-25T06:35:23;8.70;99.90
52451;DHT22;38366;53.176;6.540;2023-04-25T06:37:49;9.10;99.90
52451;DHT22;38366;53.176;6.540;2023-04-25T06:40:15;9.50;99.90
52451;DHT22;38366;53.176;6.540;2023-04-25T06:42:42;9.80;99.90
52451;DHT22;38366;53.176;6.540;2023-04-25T06:45:08;10.10;99.90
52451;DHT22;38366;53.176;6.540;2023-04-25T06:47:34;10.40;99.90
52451;DHT22;38366;53.176;6.540;2023-04-25T06:50:00;10.60;99.90
52451;DHT22;38366;53.176;6.540;2023-04-25T06:52:25;10.40;99.90
52451;DHT22;38366;53.176;6.540;2023-04-25T06:54:51;10.10;99.90
52451;DHT22;38366;53.176;6.540;2023-04-25T06:57:17;9.40;99.90
52451;DHT22;38366;53.176;6.540;2023-04-25T06:59:42;8.80;99.90
52451;DHT22;38366;53.176;6.540;2023-04-25T07:02:08;8.50;99.90
52451;DHT22;38366;53.176;6.540;2023-04-25T07:04:34;8.30;99.90
52451;DHT22;38366;53.176;6.540;2023-04-25T07:06:59;8.00;99.90
52451;DHT22;38366;53.176;6.540;2023-04-25T07:09:28;7.90;99.90
52451;DHT22;38366;53.176;6.540;2023-04-25T07:11:53;7.90;99.90
52451;DHT22;38366;53.176;6.540;2023-04-25T07:14:19;7.90;99.90
52451;DHT22;38366;53.176;6.540;2023-04-25T07:16:45;7.90;99.90
52451;DHT22;38366;53.176;6.540;2023-04-25T07:19:11;8.00;99.90
52451;DHT22;38366;53.176;6.540;2023-04-25T07:21:36;8.00;99.90
52451;DHT22;38366;53.176;6.540;2023-04-25T07:24:02;8.00;99.90
52451;DHT22;38366;53.176;6.540;2023-04-25T07:26:28;7.90;99.90
52451;DHT22;38366;53.176;6.540;2023-04-25T07:28:53;7.90;99.90
52451;DHT22;38366;53.176;6.540;2023-04-25T07:31:20;7.90;99.90
52451;DHT22;38366;53.176;6.540;2023-04-25T07:33:47;8.10;99.90
52451;DHT22;38366;53.176;6.540;2023-04-25T07:36:13;8.20;99.90
52451;DHT22;38366;53.176;6.540;2023-04-25T07:38:40;8.40;99.90
52451;DHT22;38366;53.176;6.540;2023-04-25T07:41:06;8.50;99.90
52451;DHT22;38366;53.176;6.540;2023-04-25T07:43:32;8.70;99.90
52451;DHT22;38366;53.176;6.540;2023-04-25T07:45:57;8.80;99.90
52451;DHT22;38366;53.176;6.540;2023-04-25T07:48:23;8.80;99.90
52451;DHT22;38366;53.176;6.540;2023-04-25T07:50:49;8.90;99.90
52451;DHT22;38366;53.176;6.540;2023-04-25T07:53:15;8.60;99.90
52451;DHT22;38366;53.176;6.540;2023-04-25T07:55:41;8.40;99.90
52451;DHT22;38366;53.176;6.540;2023-04-25T07:58:07;8.60;99.90
52451;DHT22;38366;53.176;6.540;2023-04-25T08:00:33;8.50;99.90
52451;DHT22;38366;53.176;6.540;2023-04-25T08:02:58;8.40;99.90
52451;DHT22;38366;53.176;6.540;2023-04-25T08:05:24;8.40;99.90
52451;DHT22;38366;53.176;6.540;2023-04-25T08:07:50;8.80;99.90
52451;DHT22;38366;53.176;6.540;2023-04-25T08:10:16;9.30;99.90
52451;DHT22;38366;53.176;6.540;2023-04-25T08:12:41;9.50;99.90
52451;DHT22;38366;53.176;6.540;2023-04-25T08:15:08;9.30;99.90
52451;DHT22;38366;53.176;6.540;2023-04-25T08:17:34;8.60;99.90
52451;DHT22;38366;53.176;6.540;2023-04-25T08:20:00;7.90;99.90
52451;DHT22;38366;53.176;6.540;2023-04-25T08:22:25;7.40;99.90
52451;DHT22;38366;53.176;6.540;2023-04-25T08:24:51;7.00;99.90
52451;DHT22;38366;53.176;6.540;2023-04-25T08:27:18;7.10;99.90
52451;DHT22;38366;53.176;6.540;2023-04-25T08:29:44;7.80;99.90
52451;DHT22;38366;53.176;6.540;2023-04-25T08:32:10;8.40;99.90
52451;DHT22;38366;53.176;6.540;2023-04-25T08:34:35;8.70;99.90
52451;DHT22;38366;53.176;6.540;2023-04-25T08:37:03;9.00;99.90
52451;DHT22;38366;53.176;6.540;2023-04-25T08:39:29;9.00;99.90
52451;DHT22;38366;53.176;6.540;2023-04-25T08:41:56;8.90;99.90
52451;DHT22;38366;53.176;6.540;2023-04-25T08:44:22;8.90;99.90
52451;DHT22;38366;53.176;6.540;2023-04-25T08:46:49;8.90;99.90
52451;DHT22;38366;53.176;6.540;2023-04-25T08:49:15;9.00;99.90
52451;DHT22;38366;53.176;6.540;2023-04-25T08:51:46;9.00;99.90
52451;DHT22;38366;53.176;6.540;2023-04-25T08:54:13;9.10;99.90
52451;DHT22;38366;53.176;6.540;2023-04-25T08:56:43;9.20;99.90
52451;DHT22;38366;53.176;6.540;2023-04-25T08:59:13;9.30;99.90
52451;DHT22;38366;53.176;6.540;2023-04-25T09:01:39;9.30;99.90
52451;DHT22;38366;53.176;6.540;2023-04-25T09:04:05;9.40;99.90
52451;DHT22;38366;53.176;6.540;2023-04-25T09:06:31;9.50;99.90
52451;DHT22;38366;53.176;6.540;2023-04-25T09:09:04;9.80;99.90
52451;DHT22;38366;53.176;6.540;2023-04-25T09:11:31;10.40;99.90
52451;DHT22;38366;53.176;6.540;2023-04-25T09:14:20;11.10;99.90
52451;DHT22;38366;53.176;6.540;2023-04-25T09:17:02;11.90;99.90
52451;DHT22;38366;53.176;6.540;2023-04-25T09:19:34;12.50;99.90
52451;DHT22;38366;53.176;6.540;2023-04-25T09:22:02;12.70;99.90
52451;DHT22;38366;53.176;6.540;2023-04-25T09:24:38;12.90;99.90
52451;DHT22;38366;53.176;6.540;2023-04-25T09:27:10;13.20;99.90
52451;DHT22;38366;53.176;6.540;2023-04-25T09:29:38;13.60;99.90
52451;DHT22;38366;53.176;6.540;2023-04-25T09:32:18;13.80;99.90
52451;DHT22;38366;53.176;6.540;2023-04-25T09:34:48;13.40;99.90
52451;DHT22;38366;53.176;6.540;2023-04-25T09:37:29;12.20;99.90
52451;DHT22;38366;53.176;6.540;2023-04-25T09:39:57;11.30;99.90
52451;DHT22;38366;53.176;6.540;2023-04-25T09:42:28;10.90;99.90
52451;DHT22;38366;53.176;6.540;2023-04-25T09:44:57;11.10;99.90
52451;DHT22;38366;53.176;6.540;2023-04-25T09:47:23;11.70;99.90
52451;DHT22;38366;53.176;6.540;2023-04-25T09:49:51;12.40;99.90
52451;DHT22;38366;53.176;6.540;2023-04-25T09:52:19;13.00;99.90
52451;DHT22;38366;53.176;6.540;2023-04-25T09:54:45;13.30;99.90
52451;DHT22;38366;53.176;6.540;2023-04-25T09:57:22;13.00;99.90
52451;DHT22;38366;53.176;6.540;2023-04-25T09:59:53;13.00;99.90
52451;DHT22;38366;53.176;6.540;2023-04-25T10:02:22;13.20;99.90
52451;DHT22;38366;53.176;6.540;2023-04-25T10:04:53;13.20;99.90
52451;DHT22;38366;53.176;6.540;2023-04-25T10:07:29;13.30;99.90
52451;DHT22;38366;53.176;6.540;2023-04-25T10:10:00;13.50;99.90
52451;DHT22;38366;53.176;6.540;2023-04-25T10:12:28;13.50;99.90
52451;DHT22;38366;53.176;6.540;2023-04-25T10:14:55;13.60;99.90
52451;DHT22;38366;53.176;6.540;2023-04-25T10:17:22;13.70;99.90
52451;DHT22;38366;53.176;6.540;2023-04-25T10:19:48;14.00;99.90
52451;DHT22;38366;53.176;6.540;2023-04-25T10:22:23;13.80;99.90
52451;DHT22;38366;53.176;6.540;2023-04-25T10:24:51;13.70;99.90
52451;DHT22;38366;53.176;6.540;2023-04-25T10:27:18;12.60;99.90
52451;DHT22;38366;53.176;6.540;2023-04-25T10:29:44;12.10;99.90
52451;DHT22;38366;53.176;6.540;2023-04-25T10:32:10;11.90;99.90
52451;DHT22;38366;53.176;6.540;2023-04-25T10:34:40;11.70;99.90
52451;DHT22;38366;53.176;6.540;2023-04-25T10:37:09;12.10;99.90
52451;DHT22;38366;53.176;6.540;2023-04-25T10:39:35;12.70;99.90
52451;DHT22;38366;53.176;6.540;2023-04-25T10:42:03;12.80;99.90
52451;DHT22;38366;53.176;6.540;2023-04-25T10:44:30;12.50;99.90
52451;DHT22;38366;53.176;6.540;2023-04-25T10:46:57;12.50;99.90
52451;DHT22;38366;53.176;6.540;2023-04-25T10:49:30;12.70;99.90
52451;DHT22;38366;53.176;6.540;2023-04-25T10:54:51;11.40;99.90
52451;DHT22;38366;53.176;6.540;2023-04-25T10:57:30;11.20;99.90
52451;DHT22;38366;53.176;6.540;2023-04-25T11:00:08;11.50;99.90
52451;DHT22;38366;53.176;6.540;2023-04-25T11:02:40;11.90;99.90
52451;DHT22;38366;53.176;6.540;2023-04-25T11:05:06;12.80;99.90
52451;DHT22;38366;53.176;6.540;2023-04-25T11:07:39;13.40;99.90
52451;DHT22;38366;53.176;6.540;2023-04-25T11:10:09;13.50;99.90
52451;DHT22;38366;53.176;6.540;2023-04-25T11:12:35;13.60;99.90
52451;DHT22;38366;53.176;6.540;2023-04-25T11:15:03;13.90;99.90
52451;DHT22;38366;53.176;6.540;2023-04-25T11:17:29;13.80;99.90
52451;DHT22;38366;53.176;6.540;2023-04-25T11:19:55;14.20;99.90
52451;DHT22;38366;53.176;6.540;2023-04-25T11:22:22;14.00;99.10
52451;DHT22;38366;53.176;6.540;2023-04-25T11:24:48;13.70;99.10
52451;DHT22;38366;53.176;6.540;2023-04-25T11:27:14;14.00;99.10
52451;DHT22;38366;53.176;6.540;2023-04-25T11:29:40;13.60;98.80
52451;DHT22;38366;53.176;6.540;2023-04-25T11:32:06;13.50;99.70
52451;DHT22;38366;53.176;6.540;2023-04-25T11:34:33;13.70;99.90
52451;DHT22;38366;53.176;6.540;2023-04-25T11:37:03;14.00;99.80
52451;DHT22;38366;53.176;6.540;2023-04-25T11:39:29;14.40;99.90
52451;DHT22;38366;53.176;6.540;2023-04-25T11:41:55;14.30;98.90
52451;DHT22;38366;53.176;6.540;2023-04-25T11:44:21;14.40;98.60
52451;DHT22;38366;53.176;6.540;2023-04-25T11:46:47;14.20;98.50
52451;DHT22;38366;53.176;6.540;2023-04-25T11:49:15;14.40;98.30
52451;DHT22;38366;53.176;6.540;2023-04-25T11:51:44;14.40;99.90
52451;DHT22;38366;53.176;6.540;2023-04-25T11:54:11;14.50;99.90
52451;DHT22;38366;53.176;6.540;2023-04-25T11:56:40;14.40;99.90
52451;DHT22;38366;53.176;6.540;2023-04-25T11:59:06;14.30;99.90
52451;DHT22;38366;53.176;6.540;2023-04-25T12:01:36;14.80;99.90
52451;DHT22;38366;53.176;6.540;2023-04-25T12:04:15;15.20;99.30
52451;DHT22;38366;53.176;6.540;2023-04-25T12:06:42;14.90;99.20
52451;DHT22;38366;53.176;6.540;2023-04-25T12:09:10;15.00;97.90
52451;DHT22;38366;53.176;6.540;2023-04-25T12:11:56;15.10;98.40
52451;DHT22;38366;53.176;6.540;2023-04-25T12:14:26;14.20;98.30
52451;DHT22;38366;53.176;6.540;2023-04-25T12:16:55;13.60;98.30
52451;DHT22;38366;53.176;6.540;2023-04-25T12:19:22;13.40;99.50
52451;DHT22;38366;53.176;6.540;2023-04-25T12:21:49;13.00;99.40
52451;DHT22;38366;53.176;6.540;2023-04-25T12:24:17;12.70;99.90
52451;DHT22;38366;53.176;6.540;2023-04-25T12:27:03;12.50;99.90
52451;DHT22;38366;53.176;6.540;2023-04-25T12:29:30;12.90;99.50
52451;DHT22;38366;53.176;6.540;2023-04-25T12:31:57;13.50;97.20
52451;DHT22;38366;53.176;6.540;2023-04-25T12:34:23;13.50;97.40
52451;DHT22;38366;53.176;6.540;2023-04-25T12:36:50;13.00;98.80
52451;DHT22;38366;53.176;6.540;2023-04-25T12:39:23;13.20;99.90
52451;DHT22;38366;53.176;6.540;2023-04-25T12:41:50;13.40;99.10
52451;DHT22;38366;53.176;6.540;2023-04-25T12:44:16;13.00;99.90
52451;DHT22;38366;53.176;6.540;2023-04-25T12:46:42;12.70;99.70
52451;DHT22;38366;53.176;6.540;2023-04-25T12:49:08;12.70;99.90
52451;DHT22;38366;53.176;6.540;2023-04-25T12:51:34;12.90;99.90
52451;DHT22;38366;53.176;6.540;2023-04-25T12:54:01;13.30;99.90
52451;DHT22;38366;53.176;6.540;2023-04-25T12:56:27;13.20;97.70
52451;DHT22;38366;53.176;6.540;2023-04-25T12:58:53;13.60;99.30
52451;DHT22;38366;53.176;6.540;2023-04-25T13:01:22;14.00;97.60
52451;DHT22;38366;53.176;6.540;2023-04-25T13:03:48;14.20;97.60
52451;DHT22;38366;53.176;6.540;2023-04-25T13:06:15;14.30;96.90
52451;DHT22;38366;53.176;6.540;2023-04-25T13:08:41;13.90;97.80
52451;DHT22;38366;53.176;6.540;2023-04-25T13:11:08;13.60;99.00
52451;DHT22;38366;53.176;6.540;2023-04-25T13:13:34;13.40;99.90
52451;DHT22;38366;53.176;6.540;2023-04-25T13:16:04;13.30;99.90
52451;DHT22;38366;53.176;6.540;2023-04-25T13:18:30;12.90;99.90
52451;DHT22;38366;53.176;6.540;2023-04-25T13:20:56;12.50;99.90
52451;DHT22;38366;53.176;6.540;2023-04-25T13:23:22;12.00;99.90
52451;DHT22;38366;53.176;6.540;2023-04-25T13:25:48;12.10;99.90
52451;DHT22;38366;53.176;6.540;2023-04-25T13:28:14;11.90;99.90
52451;DHT22;38366;53.176;6.540;2023-04-25T13:30:40;12.50;99.90
52451;DHT22;38366;53.176;6.540;2023-04-25T13:33:06;12.80;99.90
52451;DHT22;38366;53.176;6.540;2023-04-25T13:35:33;13.30;99.90
52451;DHT22;38366;53.176;6.540;2023-04-25T13:37:59;13.70;99.40
52451;DHT22;38366;53.176;6.540;2023-04-25T13:40:25;13.70;99.70
52451;DHT22;38366;53.176;6.540;2023-04-25T13:42:52;13.80;99.50
52451;DHT22;38366;53.176;6.540;2023-04-25T13:45:19;13.40;99.90
52451;DHT22;38366;53.176;6.540;2023-04-25T13:47:45;13.00;99.60
52451;DHT22;38366;53.176;6.540;2023-04-25T13:50:11;12.90;99.00
52451;DHT22;38366;53.176;6.540;2023-04-25T13:52:37;12.50;97.90
52451;DHT22;38366;53.176;6.540;2023-04-25T13:55:03;12.40;98.90
52451;DHT22;38366;53.176;6.540;2023-04-25T13:57:30;12.50;98.00
52451;DHT22;38366;53.176;6.540;2023-04-25T13:59:56;12.40;98.50
52451;DHT22;38366;53.176;6.540;2023-04-25T14:02:22;12.40;99.30
52451;DHT22;38366;53.176;6.540;2023-04-25T14:04:48;12.30;98.60
52451;DHT22;38366;53.176;6.540;2023-04-25T14:07:14;12.00;99.80
52451;DHT22;38366;53.176;6.540;2023-04-25T14:09:43;11.80;99.90
52451;DHT22;38366;53.176;6.540;2023-04-25T14:12:09;11.60;99.90
52451;DHT22;38366;53.176;6.540;2023-04-25T14:14:35;11.50;99.90
52451;DHT22;38366;53.176;6.540;2023-04-25T14:17:01;11.40;99.90
52451;DHT22;38366;53.176;6.540;2023-04-25T14:19:27;11.40;99.90
52451;DHT22;38366;53.176;6.540;2023-04-25T14:21:54;11.60;99.90
52451;DHT22;38366;53.176;6.540;2023-04-25T14:24:19;11.50;99.90
52451;DHT22;38366;53.176;6.540;2023-04-25T14:26:45;11.30;99.90
52451;DHT22;38366;53.176;6.540;2023-04-25T14:29:11;11.20;99.90
52451;DHT22;38366;53.176;6.540;2023-04-25T14:31:38;11.30;99.90
52451;DHT22;38366;53.176;6.540;2023-04-25T14:34:07;11.50;99.80
52451;DHT22;38366;53.176;6.540;2023-04-25T14:36:33;11.70;99.90
52451;DHT22;38366;53.176;6.540;2023-04-25T14:38:59;11.50;98.20
52451;DHT22;38366;53.176;6.540;2023-04-25T14:41:26;11.50;99.20
52451;DHT22;38366;53.176;6.540;2023-04-25T14:43:52;11.60;99.90
52451;DHT22;38366;53.176;6.540;2023-04-25T14:46:19;11.70;99.90
52451;DHT22;38366;53.176;6.540;2023-04-25T14:48:45;11.70;99.90
52451;DHT22;38366;53.176;6.540;2023-04-25T14:51:12;11.70;99.90
52451;DHT22;38366;53.176;6.540;2023-04-25T14:53:39;11.40;99.90
52451;DHT22;38366;53.176;6.540;2023-04-25T14:56:05;11.30;99.90
52451;DHT22;38366;53.176;6.540;2023-04-25T14:58:31;11.20;99.90
52451;DHT22;38366;53.176;6.540;2023-04-25T15:00:56;11.20;99.90
52451;DHT22;38366;53.176;6.540;2023-04-25T15:03:22;10.90;99.90
52451;DHT22;38366;53.176;6.540;2023-04-25T15:05:48;10.90;99.90
52451;DHT22;38366;53.176;6.540;2023-04-25T15:08:13;10.80;99.90
52451;DHT22;38366;53.176;6.540;2023-04-25T15:10:39;11.00;99.90
52451;DHT22;38366;53.176;6.540;2023-04-25T15:13:05;11.10;99.90
52451;DHT22;38366;53.176;6.540;2023-04-25T15:15:31;11.20;99.70
52451;DHT22;38366;53.176;6.540;2023-04-25T15:17:57;11.20;99.90
52451;DHT22;38366;53.176;6.540;2023-04-25T15:20:23;11.10;99.90
52451;DHT22;38366;53.176;6.540;2023-04-25T15:22:49;11.00;99.90
52451;DHT22;38366;53.176;6.540;2023-04-25T15:25:15;10.90;99.90
52451;DHT22;38366;53.176;6.540;2023-04-25T15:27:43;10.70;99.90
52451;DHT22;38366;53.176;6.540;2023-04-25T15:30:13;10.40;99.90
52451;DHT22;38366;53.176;6.540;2023-04-25T15:32:41;10.30;99.90
52451;DHT22;38366;53.176;6.540;2023-04-25T15:35:07;10.10;99.90
52451;DHT22;38366;53.176;6.540;2023-04-25T15:37:34;10.10;99.90
52451;DHT22;38366;53.176;6.540;2023-04-25T15:40:06;10.00;99.90